Time;durP1;ratioP1;P1;durP2;ratioP2;P2;SDS_P1;SDS_P2;PMS_P1;PMS_P2;Temp;Humidity;BMP_temperature;BMP_pressure;BME280_temperature;BME280_humidity;BME280_pressure;Samples;Min_cycle;Max_cycle;Signal;HPM_P1;HPM_P2
2022/05/05 00:00:37;;;;;;;4.32;3.22;;;22.40;37.60;;;;;;5139417;27;20019;-38
2022/05/05 00:03:04;;;;;;;4.63;3.20;;;22.30;37.60;;;;;;5137166;27;20032;-39
2022/05/05 00:05:30;;;;;;;4.53;3.05;;;22.30;37.60;;;;;;5139424;27;20466;-39
2022/05/05 00:07:56;;;;;;;4.18;3.05;;;22.30;37.60;;;;;;5138300;27;20025;-38
2022/05/05 00:15:51;;;;;;;5.78;3.40;;;22.30;37.70;;;;;;5138913;27;20045;-41
2022/05/05 00:18:18;;;;;;;3.78;3.10;;;22.30;37.70;;;;;;5139594;27;20086;-42
2022/05/05 00:20:44;;;;;;;5.68;3.67;;;22.30;37.80;;;;;;5140640;27;20035;-40
2022/05/05 00:23:10;;;;;;;4.10;3.10;;;22.30;37.70;;;;;;5137950;27;20034;-38
2022/05/05 00:25:36;;;;;;;4.07;3.30;;;22.30;37.70;;;;;;5121025;27;20011;-40
2022/05/05 00:28:02;;;;;;;4.70;3.17;;;22.30;37.70;;;;;;5137736;27;20014;-39
2022/05/05 00:30:29;;;;;;;4.15;3.25;;;22.30;37.80;;;;;;5138060;27;20031;-39
2022/05/05 00:32:55;;;;;;;3.83;2.92;;;22.30;37.80;;;;;;5139202;27;20554;-39
2022/05/05 00:35:22;;;;;;;3.60;3.08;;;22.20;37.70;;;;;;5138802;27;20094;-39
2022/05/05 00:37:49;;;;;;;3.92;3.20;;;22.20;37.80;;;;;;5138557;27;20019;-39
2022/05/05 00:40:14;;;;;;;5.38;3.20;;;22.30;37.90;;;;;;5138464;27;20057;-39
2022/05/05 00:42:40;;;;;;;3.72;3.17;;;22.20;37.90;;;;;;5137626;27;20534;-43
2022/05/05 00:45:06;;;;;;;4.63;3.53;;;22.30;37.90;;;;;;5137370;27;20011;-40
2022/05/05 00:47:32;;;;;;;5.63;3.28;;;22.30;38.00;;;;;;5138033;27;20067;-40
2022/05/05 00:49:59;;;;;;;4.32;3.08;;;22.30;38.00;;;;;;5138947;27;20058;-41
2022/05/05 00:52:26;;;;;;;5.25;3.47;;;22.20;37.90;;;;;;5137252;27;20148;-41
2022/05/05 00:54:52;;;;;;;4.35;3.30;;;22.20;37.90;;;;;;5138934;27;20056;-41
2022/05/05 00:57:17;;;;;;;4.53;3.65;;;22.30;38.00;;;;;;5139009;27;20015;-40
2022/05/05 00:59:43;;;;;;;5.43;3.28;;;22.20;38.00;;;;;;5140737;27;20534;-42
2022/05/05 01:02:09;;;;;;;4.70;3.42;;;22.20;38.00;;;;;;5140634;27;20011;-41
2022/05/05 01:04:36;;;;;;;4.80;4.00;;;22.20;38.00;;;;;;5137302;27;20076;-39
2022/05/05 01:07:01;;;;;;;4.43;3.20;;;22.20;38.00;;;;;;5137990;27;20015;-40
2022/05/05 01:09:27;;;;;;;4.18;3.25;;;22.20;38.10;;;;;;5119898;27;20488;-38
2022/05/05 01:11:53;;;;;;;4.20;3.30;;;22.20;38.00;;;;;;5138223;27;20027;-45
2022/05/05 01:14:19;;;;;;;5.25;3.42;;;22.20;38.00;;;;;;5139809;27;20012;-40
2022/05/05 01:16:45;;;;;;;3.80;3.38;;;22.20;38.00;;;;;;5141555;27;20015;-43
2022/05/05 01:19:11;;;;;;;5.57;3.50;;;22.20;38.00;;;;;;5143142;27;20023;-43
2022/05/05 01:21:37;;;;;;;4.63;3.10;;;22.20;38.10;;;;;;5140341;27;20114;-42
2022/05/05 01:24:05;;;;;;;4.75;3.63;;;22.20;38.70;;;;;;5140537;27;20020;-43
2022/05/05 01:29:16;;;;;;;3.30;3.00;;;22.20;38.10;;;;;;5136183;27;20385;-40
2022/05/05 01:31:43;;;;;;;4.32;3.42;;;22.20;38.10;;;;;;5117604;27;20003;-40
2022/05/05 01:34:08;;;;;;;5.97;3.70;;;22.20;38.10;;;;;;5134474;27;20582;-43
2022/05/05 01:36:35;;;;;;;3.90;3.50;;;22.20;38.10;;;;;;5136534;27;20019;-39
2022/05/05 01:39:00;;;;;;;4.50;3.40;;;22.20;38.20;;;;;;5135878;27;20504;-39
2022/05/05 01:41:26;;;;;;;6.28;3.72;;;22.10;38.20;;;;;;5135623;27;20449;-39
2022/05/05 01:43:52;;;;;;;4.05;3.38;;;22.10;38.10;;;;;;5135347;27;20033;-39
2022/05/05 01:46:18;;;;;;;4.90;3.13;;;22.20;38.30;;;;;;5137029;27;20014;-39
2022/05/05 01:48:44;;;;;;;5.15;3.40;;;22.10;38.20;;;;;;5137003;27;20047;-38
2022/05/05 01:51:10;;;;;;;5.82;3.30;;;22.10;38.20;;;;;;5135682;27;20052;-40
2022/05/05 01:53:38;;;;;;;5.60;3.47;;;22.10;38.20;;;;;;5136004;27;20023;-40
2022/05/05 01:56:11;;;;;;;4.95;3.33;;;22.20;38.30;;;;;;5135615;27;20516;-39
2022/05/05 01:58:38;;;;;;;5.43;3.60;;;22.10;38.30;;;;;;5136554;27;20026;-39
2022/05/05 02:01:04;;;;;;;3.90;3.20;;;22.10;38.30;;;;;;5136628;27;20015;-40
2022/05/05 02:03:30;;;;;;;5.55;3.67;;;22.20;38.30;;;;;;5134725;27;20148;-40
2022/05/05 02:05:56;;;;;;;4.57;3.40;;;22.10;38.30;;;;;;5136527;27;20022;-39
2022/05/05 02:08:21;;;;;;;4.13;3.33;;;22.10;38.30;;;;;;5136209;27;20018;-39
2022/05/05 02:10:47;;;;;;;4.50;3.58;;;22.10;38.30;;;;;;5136843;27;20022;-38
2022/05/05 02:13:13;;;;;;;4.65;3.67;;;22.10;38.30;;;;;;5136285;27;20019;-39
2022/05/05 02:15:39;;;;;;;4.82;3.33;;;22.10;38.30;;;;;;5136027;27;20097;-39
2022/05/05 02:18:09;;;;;;;4.72;3.47;;;22.10;38.40;;;;;;5117266;27;20047;-40
2022/05/05 02:20:35;;;;;;;;;;;22.10;38.40;;;;;;5136271;27;20065;-38
2022/05/05 02:23:01;;;;;;;4.18;3.25;;;22.10;38.40;;;;;;5134448;27;20369;-38
2022/05/05 02:25:26;;;;;;;3.95;3.30;;;22.10;38.40;;;;;;5133758;27;20481;-39
2022/05/05 02:27:53;;;;;;;3.67;3.22;;;22.10;38.40;;;;;;5136277;27;20022;-40
2022/05/05 02:30:21;;;;;;;4.32;3.22;;;22.10;38.40;;;;;;5138024;27;20011;-39
2022/05/05 02:32:47;;;;;;;4.05;3.40;;;22.10;38.50;;;;;;5137431;27;20522;-38
2022/05/05 02:35:12;;;;;;;3.78;3.20;;;22.10;38.40;;;;;;5139117;27;20019;-40
2022/05/05 02:40:23;;;;;;;3.65;3.17;;;22.10;38.50;;;;;;5136576;28;20056;-39
2022/05/05 02:42:48;;;;;;;4.05;3.35;;;22.10;38.50;;;;;;5134735;28;20548;-39
2022/05/05 02:45:14;;;;;;;4.15;3.10;;;22.00;38.50;;;;;;5133641;28;20007;-38
2022/05/05 02:47:40;;;;;;;4.47;3.50;;;22.00;38.50;;;;;;5134617;28;20102;-38
2022/05/05 02:50:06;;;;;;;6.70;3.80;;;22.00;38.40;;;;;;5133236;28;20512;-38
2022/05/05 02:52:33;;;;;;;4.03;3.25;;;22.00;38.50;;;;;;5133666;28;20027;-38
2022/05/05 02:54:59;;;;;;;4.53;3.05;;;22.00;38.50;;;;;;5134448;27;20003;-38
2022/05/05 02:57:25;;;;;;;4.18;3.25;;;22.00;38.50;;;;;;5134465;28;20086;-39
2022/05/05 02:59:53;;;;;;;3.60;3.30;;;22.00;38.60;;;;;;5134397;27;20523;-40
2022/05/05 03:02:19;;;;;;;4.20;3.13;;;22.00;38.60;;;;;;5133899;27;20034;-40
2022/05/05 03:04:44;;;;;;;3.90;3.25;;;22.00;38.50;;;;;;5132661;28;20058;-40
2022/05/05 03:07:10;;;;;;;4.30;3.40;;;22.00;38.60;;;;;;5135289;28;20508;-40
2022/05/05 03:09:36;;;;;;;4.07;3.30;;;22.00;38.60;;;;;;5135013;28;20465;-40
2022/05/05 03:12:01;;;;;;;5.10;3.63;;;22.00;38.60;;;;;;5135842;27;20007;-42
2022/05/05 03:14:28;;;;;;;3.75;3.30;;;22.00;38.60;;;;;;5132870;28;20023;-40
2022/05/05 03:16:54;;;;;;;4.13;3.20;;;22.00;38.70;;;;;;5132811;28;20068;-40
2022/05/05 03:19:20;;;;;;;5.63;3.58;;;22.00;38.70;;;;;;5132426;28;20015;-41
2022/05/05 03:21:45;;;;;;;3.90;3.35;;;22.00;38.70;;;;;;5132274;28;20054;-41
2022/05/05 03:24:11;;;;;;;5.82;3.78;;;22.00;38.70;;;;;;5133694;28;20027;-41
2022/05/05 03:26:37;;;;;;;3.53;3.17;;;22.00;38.80;;;;;;5133816;28;20457;-42
2022/05/05 03:29:04;;;;;;;3.58;3.22;;;22.00;38.80;;;;;;5133772;28;20012;-41
2022/05/05 03:31:31;;;;;;;4.68;3.25;;;21.90;38.80;;;;;;5134109;28;20532;-41
2022/05/05 03:33:57;;;;;;;5.07;3.22;;;21.90;38.70;;;;;;5134121;27;20020;-41
2022/05/05 03:36:23;;;;;;;3.58;3.22;;;22.00;38.90;;;;;;5133085;27;20465;-41
2022/05/05 03:38:49;;;;;;;4.40;3.33;;;21.90;38.80;;;;;;5136753;27;20020;-38
2022/05/05 03:41:15;;;;;;;3.50;3.17;;;22.00;38.90;;;;;;5119036;27;20027;-37
2022/05/05 03:43:41;;;;;;;4.82;3.47;;;21.90;38.80;;;;;;5137161;27;20495;-37
2022/05/05 03:46:07;;;;;;;4.22;3.50;;;22.00;38.90;;;;;;5137184;27;20019;-37
2022/05/05 03:48:32;;;;;;;4.55;3.30;;;21.90;38.90;;;;;;5137001;27;20019;-37
2022/05/05 03:50:58;;;;;;;5.10;3.25;;;21.90;38.90;;;;;;5137495;27;20019;-37
2022/05/05 03:53:24;;;;;;;4.03;3.22;;;21.90;38.90;;;;;;5136576;27;20019;-37
2022/05/05 03:55:50;;;;;;;4.25;3.15;;;21.90;38.90;;;;;;5136799;27;20072;-37
2022/05/05 03:58:15;;;;;;;3.50;3.20;;;21.90;39.00;;;;;;5136875;27;20015;-37
2022/05/05 04:00:42;;;;;;;3.83;3.20;;;21.90;39.00;;;;;;5137198;27;20102;-38
2022/05/05 04:06:10;;;;;;;4.85;3.38;;;21.90;39.00;;;;;;5073281;28;20028;-39
2022/05/05 04:08:37;;;;;;;4.70;3.20;;;21.90;39.00;;;;;;5057477;28;20390;-39
2022/05/05 04:11:04;;;;;;;4.25;3.60;;;21.90;39.10;;;;;;5074393;28;20011;-39
2022/05/05 04:13:50;;;;;;;4.88;3.58;;;21.90;39.10;;;;;;5059605;28;20036;-39
2022/05/05 04:16:15;;;;;;;4.28;3.22;;;21.90;39.10;;;;;;5073181;28;20077;-38
2022/05/05 04:18:41;;;;;;;3.80;3.40;;;21.90;39.10;;;;;;5073058;28;20524;-41
2022/05/05 04:21:07;;;;;;;4.13;3.38;;;21.90;39.10;;;;;;5072982;28;20704;-42
2022/05/05 04:23:33;;;;;;;3.70;3.10;;;21.90;39.10;;;;;;5074302;28;20422;-43
2022/05/05 04:25:59;;;;;;;4.57;3.63;;;21.90;39.10;;;;;;5056619;28;20017;-41
2022/05/05 04:28:24;;;;;;;4.75;3.65;;;21.90;39.10;;;;;;5056110;28;20059;-41
2022/05/05 04:31:04;;;;;;;4.65;3.63;;;21.90;39.20;;;;;;5072933;28;20017;-42
2022/05/05 04:33:31;;;;;;;4.07;3.60;;;21.90;39.20;;;;;;5072805;28;20530;-41
2022/05/05 04:35:56;;;;;;;4.35;3.50;;;21.90;39.20;;;;;;5072747;28;20048;-42
2022/05/05 04:38:22;;;;;;;4.63;3.63;;;21.90;39.30;;;;;;5072761;28;20489;-43
2022/05/05 04:40:49;;;;;;;4.80;3.55;;;21.90;39.30;;;;;;5116785;27;20043;-42
2022/05/05 04:43:15;;;;;;;5.47;3.83;;;21.90;39.30;;;;;;5136110;27;20023;-43
2022/05/05 04:45:43;;;;;;;4.25;3.28;;;21.90;39.40;;;;;;5134914;27;20011;-43
2022/05/05 04:48:11;;;;;;;5.70;3.70;;;21.90;39.40;;;;;;5135303;27;20465;-43
2022/05/05 04:50:36;;;;;;;5.35;3.35;;;21.90;39.40;;;;;;5135621;27;20025;-43
2022/05/05 04:53:03;;;;;;;4.47;3.40;;;21.90;39.50;;;;;;5134862;27;20042;-43
2022/05/05 04:55:28;;;;;;;3.90;3.50;;;21.90;39.50;;;;;;5134469;27;20011;-43
2022/05/05 04:57:55;;;;;;;4.97;3.75;;;21.90;39.50;;;;;;5135587;27;20500;-47
2022/05/05 05:00:21;;;;;;;4.32;3.72;;;21.90;39.50;;;;;;5135559;27;20027;-44
2022/05/05 05:02:47;;;;;;;5.63;3.53;;;21.80;39.50;;;;;;5117624;27;20493;-45
2022/05/05 05:05:13;;;;;;;4.90;3.58;;;21.80;39.50;;;;;;5135866;27;20003;-44
2022/05/05 05:07:38;;;;;;;5.70;3.83;;;21.80;39.60;;;;;;5135999;27;20466;-46
2022/05/05 05:10:05;;;;;;;4.60;3.65;;;21.80;39.60;;;;;;5118166;27;20031;-44
2022/05/05 05:12:33;;;;;;;4.13;3.60;;;21.80;39.60;;;;;;5134547;27;20024;-44
2022/05/05 05:14:59;;;;;;;6.20;4.00;;;21.80;39.80;;;;;;5135897;27;20018;-43
2022/05/05 05:17:25;;;;;;;6.60;4.15;;;21.80;40.00;;;;;;5134028;27;20480;-45
2022/05/05 05:19:50;;;;;;;6.53;3.67;;;21.80;40.10;;;;;;5135590;27;20019;-37
2022/05/05 05:22:16;;;;;;;5.35;4.00;;;21.80;40.20;;;;;;5135500;27;20110;-37
2022/05/05 05:24:42;;;;;;;7.15;4.20;;;21.80;40.40;;;;;;5134931;27;20549;-37
2022/05/05 05:27:08;;;;;;;6.20;3.90;;;21.80;40.30;;;;;;5134952;27;20015;-37
2022/05/05 05:29:34;;;;;;;4.57;3.67;;;21.80;40.30;;;;;;5133784;27;20433;-37
2022/05/05 05:32:00;;;;;;;5.43;3.65;;;21.80;40.40;;;;;;5134959;27;20027;-37
2022/05/05 05:34:27;;;;;;;5.88;3.85;;;21.80;40.40;;;;;;5133824;27;20015;-37
2022/05/05 05:36:52;;;;;;;4.70;3.88;;;21.80;40.40;;;;;;5135042;27;20068;-37
2022/05/05 05:39:19;;;;;;;7.55;4.05;;;21.80;40.40;;;;;;5116547;27;20104;-38
2022/05/05 05:41:44;;;;;;;6.60;4.18;;;21.70;40.60;;;;;;5134530;27;20427;-38
2022/05/05 05:44:11;;;;;;;5.78;4.85;;;21.80;40.60;;;;;;5134351;27;20488;-38
2022/05/05 05:46:37;;;;;;;6.78;4.75;;;21.70;41.20;;;;;;5135273;27;20019;-38
2022/05/05 05:49:05;;;;;;;6.78;4.63;;;21.60;41.60;;;;;;5134420;27;20007;-37
2022/05/05 05:51:31;;;;;;;6.90;5.05;;;21.70;41.70;;;;;;5134373;27;20107;-37
2022/05/05 05:53:57;;;;;;;6.88;5.38;;;21.70;41.80;;;;;;5134449;27;20084;-37
2022/05/05 05:56:23;;;;;;;6.97;5.15;;;21.60;42.10;;;;;;5133152;27;20391;-37
2022/05/05 05:58:48;;;;;;;9.65;5.50;;;21.40;43.50;;;;;;5133089;27;20011;-37
2022/05/05 06:01:14;;;;;;;6.85;6.03;;;21.10;43.50;;;;;;5132689;27;20098;-36
2022/05/05 06:03:55;;;;;;;9.77;6.82;;;21.00;43.90;;;;;;5132240;27;20042;-37
2022/05/05 06:06:22;;;;;;;8.52;6.38;;;21.00;44.10;;;;;;5133434;27;20030;-36
2022/05/05 06:08:48;;;;;;;11.45;5.75;;;20.90;44.40;;;;;;5133532;27;20019;-37
2022/05/05 06:11:18;;;;;;;7.85;6.22;;;20.90;44.50;;;;;;5133484;27;20000;-38
2022/05/05 06:13:44;;;;;;;10.57;8.13;;;21.20;43.90;;;;;;5132255;27;20026;-38
2022/05/05 06:16:10;;;;;;;12.23;7.47;;;21.40;44.20;;;;;;5133448;27;20011;-37
2022/05/05 06:18:40;;;;;;;10.38;6.97;;;21.50;43.30;;;;;;5131739;27;20019;-37
2022/05/05 06:21:06;;;;;;;8.35;7.47;;;21.70;42.90;;;;;;5131949;27;20516;-38
2022/05/05 06:23:31;;;;;;;11.23;7.80;;;21.80;42.90;;;;;;5130898;27;20056;-37
2022/05/05 06:25:57;;;;;;;16.13;9.00;;;21.80;43.80;;;;;;5131762;27;20516;-37
2022/05/05 06:28:23;;;;;;;26.85;8.02;;;21.80;43.60;;;;;;5133221;27;20027;-38
2022/05/05 06:30:48;;;;;;;31.80;14.60;;;22.00;43.90;;;;;;5133618;27;20086;-38
2022/05/05 06:33:14;;;;;;;31.45;13.27;;;22.00;45.00;;;;;;5133575;27;20473;-38
2022/05/05 06:35:39;;;;;;;34.10;16.45;;;22.20;47.30;;;;;;5132224;27;20469;-38
2022/05/05 06:38:05;;;;;;;33.88;14.02;;;22.30;47.10;;;;;;5132026;27;20027;-38
2022/05/05 06:40:31;;;;;;;32.42;15.48;;;22.40;47.70;;;;;;5133390;27;20019;-41
2022/05/05 06:42:57;;;;;;;44.83;13.82;;;22.60;47.90;;;;;;5133317;27;20027;-41
2022/05/05 06:45:23;;;;;;;34.78;14.13;;;22.70;47.60;;;;;;5133186;27;20068;-40
2022/05/05 06:47:49;;;;;;;38.70;15.75;;;22.50;46.50;;;;;;5133391;27;20015;-40
2022/05/05 06:50:16;;;;;;;38.08;16.83;;;21.40;48.80;;;;;;5131614;28;20018;-40
2022/05/05 06:52:42;;;;;;;43.92;17.25;;;21.50;51.10;;;;;;5133454;27;20023;-41
2022/05/05 06:55:08;;;;;;;43.85;16.25;;;22.90;49.20;;;;;;5133197;27;20007;-40
2022/05/05 06:57:35;;;;;;;36.65;16.13;;;24.10;46.70;;;;;;5132281;28;20007;-40
2022/05/05 07:00:01;;;;;;;42.75;16.92;;;24.80;44.90;;;;;;5133733;27;20019;-45
2022/05/05 07:02:27;;;;;;;35.50;16.23;;;25.30;44.10;;;;;;5133383;27;20015;-42
2022/05/05 07:07:37;;;;;;;32.03;16.15;;;25.50;42.60;;;;;;5133097;28;20015;-42
2022/05/05 07:12:47;;;;;;;57.67;17.58;;;22.50;45.80;;;;;;5134987;27;20115;-42
2022/05/05 07:15:13;;;;;;;39.28;14.63;;;21.90;48.20;;;;;;5135234;27;20042;-44
2022/05/05 07:17:39;;;;;;;35.42;15.07;;;21.70;49.20;;;;;;5135398;27;20483;-42
2022/05/05 07:20:05;;;;;;;38.42;14.80;;;21.90;48.60;;;;;;5136991;27;20011;-38
2022/05/05 07:22:31;;;;;;;31.48;13.32;;;22.20;47.60;;;;;;5135177;27;20035;-38
2022/05/05 07:24:59;;;;;;;38.67;12.80;;;22.40;47.20;;;;;;5136996;27;20019;-38
2022/05/05 07:27:25;;;;;;;26.38;12.20;;;22.50;46.50;;;;;;5135324;27;20060;-37
2022/05/05 07:29:51;;;;;;;25.90;12.02;;;22.70;46.00;;;;;;5135228;27;20012;-38
2022/05/05 07:32:16;;;;;;;25.33;10.82;;;22.80;45.50;;;;;;5134911;27;20028;-37
2022/05/05 07:34:43;;;;;;;23.88;9.73;;;22.90;45.40;;;;;;5136453;27;20080;-37
2022/05/05 07:37:09;;;;;;;26.58;10.77;;;22.90;45.20;;;;;;5134762;27;20067;-38
2022/05/05 07:39:34;;;;;;;21.83;9.13;;;22.90;45.20;;;;;;5136527;27;20023;-38
2022/05/05 07:42:00;;;;;;;19.23;9.48;;;22.90;45.00;;;;;;5136183;27;20318;-37
2022/05/05 07:44:28;;;;;;;24.15;9.75;;;23.00;44.90;;;;;;5135846;27;20168;-37
2022/05/05 07:46:55;;;;;;;21.50;9.70;;;23.10;44.80;;;;;;5136163;27;20017;-37
2022/05/05 07:49:21;;;;;;;20.35;9.85;;;23.00;44.90;;;;;;5135522;27;20038;-37
2022/05/05 07:51:50;;;;;;;31.33;13.15;;;22.80;45.20;;;;;;5135172;27;20062;-38
2022/05/05 07:54:34;;;;;;;18.20;9.95;;;22.60;45.80;;;;;;5135052;27;20011;-38
2022/05/05 07:57:01;;;;;;;25.77;10.85;;;22.10;46.70;;;;;;5133449;27;20034;-38
2022/05/05 07:59:27;;;;;;;24.80;10.57;;;22.10;47.10;;;;;;5134398;27;20012;-39
2022/05/05 08:01:53;;;;;;;25.02;10.95;;;22.40;46.70;;;;;;5134530;27;20034;-38
2022/05/05 08:04:19;;;;;;;30.27;11.20;;;22.40;46.40;;;;;;5134280;27;20027;-38
2022/05/05 08:06:44;;;;;;;25.13;10.55;;;22.60;46.10;;;;;;5134903;27;20299;-38
2022/05/05 08:09:11;;;;;;;22.13;10.30;;;22.80;45.90;;;;;;5117095;27;20509;-38
2022/05/05 08:11:37;;;;;;;22.10;10.40;;;22.80;45.70;;;;;;5135388;27;20025;-38
2022/05/05 08:14:04;;;;;;;18.20;10.10;;;22.80;45.50;;;;;;5134857;27;20082;-38
2022/05/05 08:16:30;;;;;;;25.90;10.55;;;22.80;45.40;;;;;;5135008;27;20030;-38
2022/05/05 08:18:55;;;;;;;65.32;14.77;;;22.40;46.50;;;;;;5135141;27;20354;-38
2022/05/05 08:21:21;;;;;;;40.45;12.27;;;22.10;48.50;;;;;;5134053;27;20358;-38
2022/05/05 08:23:47;;;;;;;33.42;11.00;;;22.00;48.60;;;;;;5134417;27;20131;-39
2022/05/05 08:28:57;;;;;;;39.80;12.50;;;22.30;48.00;;;;;;5135967;27;20034;-39
2022/05/05 08:31:23;;;;;;;41.00;12.45;;;22.50;48.00;;;;;;5135506;27;20094;-39
2022/05/05 08:33:49;;;;;;;35.72;14.07;;;22.40;48.40;;;;;;5116768;27;20110;-39
2022/05/05 08:36:14;;;;;;;45.22;14.98;;;22.60;48.80;;;;;;5135638;27;20075;-40
2022/05/05 08:38:41;;;;;;;37.00;12.35;;;22.60;48.40;;;;;;5134439;27;20034;-38
2022/05/05 08:41:11;;;;;;;51.28;19.52;;;22.80;47.70;;;;;;5134052;27;20098;-39
2022/05/05 08:43:36;;;;;;;48.10;22.83;;;23.30;48.20;;;;;;5133891;27;20027;-39
2022/05/05 08:46:03;;;;;;;66.80;33.60;;;24.20;47.60;;;;;;5135949;27;20003;-40
2022/05/05 08:48:30;;;;;;;53.95;32.10;;;25.20;46.20;;;;;;5134145;27;20497;-37
2022/05/05 08:50:56;;;;;;;93.28;51.30;;;26.10;44.60;;;;;;5134050;27;20012;-39
2022/05/05 08:53:24;;;;;;;64.88;33.88;;;26.70;43.30;;;;;;5133699;27;20015;-37
2022/05/05 08:55:50;;;;;;;40.00;23.13;;;26.80;42.20;;;;;;5134497;27;20019;-38
2022/05/05 08:58:16;;;;;;;54.30;33.22;;;26.70;41.70;;;;;;5134562;27;20492;-38
2022/05/05 09:00:43;;;;;;;53.33;28.60;;;26.80;41.80;;;;;;5134829;27;20019;-45
2022/05/05 09:03:10;;;;;;;36.97;21.52;;;26.90;41.70;;;;;;5133488;27;20027;-44
2022/05/05 09:05:44;;;;;;;48.25;24.88;;;26.70;40.40;;;;;;5132807;27;20007;-41
2022/05/05 09:08:11;;;;;;;36.20;17.23;;;26.30;41.90;;;;;;5133914;27;20481;-43
2022/05/05 09:10:48;;;;;;;40.10;17.33;;;25.50;41.70;;;;;;5133840;27;20111;-44
2022/05/05 09:13:14;;;;;;;57.97;20.67;;;24.60;43.40;;;;;;5134647;27;20019;-45
2022/05/05 09:15:41;;;;;;;45.38;17.15;;;23.80;45.30;;;;;;5116108;27;20389;-44
2022/05/05 09:18:20;;;;;;;39.72;12.63;;;23.50;46.10;;;;;;5134658;27;20015;-40
2022/05/05 09:20:47;;;;;;;32.28;12.73;;;23.40;46.40;;;;;;5134179;27;20127;-37
2022/05/05 09:23:34;;;;;;;31.48;11.27;;;23.30;46.50;;;;;;5134636;27;20061;-38
2022/05/05 09:26:00;;;;;;;26.45;10.10;;;23.20;46.80;;;;;;5133313;27;20019;-37
2022/05/05 09:28:28;;;;;;;29.25;10.75;;;23.30;46.50;;;;;;5134360;27;20027;-37
2022/05/05 09:30:55;;;;;;;27.88;9.10;;;23.20;46.40;;;;;;5134317;27;20018;-37
2022/05/05 09:33:38;;;;;;;30.52;9.63;;;23.10;46.60;;;;;;5134168;27;20023;-37
2022/05/05 09:36:10;;;;;;;32.20;9.85;;;23.00;46.80;;;;;;5133597;27;20027;-38
2022/05/05 09:39:00;;;;;;;26.17;9.95;;;22.80;46.90;;;;;;5133410;27;20183;-37
2022/05/05 09:41:32;;;;;;;19.20;9.02;;;22.60;47.20;;;;;;5134455;27;20099;-43
2022/05/05 09:44:20;;;;;;;30.55;9.40;;;22.60;46.80;;;;;;5134014;27;20020;-41
2022/05/05 09:46:46;;;;;;;20.40;8.30;;;22.60;46.90;;;;;;5133124;27;20008;-42
2022/05/05 09:49:16;;;;;;;17.55;8.43;;;22.60;46.70;;;;;;5115718;27;20027;-41
2022/05/05 09:57:39;;;;;;;;;;;22.00;48.00;;;;;;5133194;27;20525;-43
2022/05/05 09:57:41;;;;;;;18.88;7.35;;;22.30;47.30;;;;;;5132607;27;20025;-41
2022/05/05 10:00:23;;;;;;;19.27;7.60;;;22.50;47.00;;;;;;5133737;27;20107;-37
2022/05/05 10:05:33;;;;;;;18.38;7.20;;;22.30;46.70;;;;;;5133349;27;20107;-38
2022/05/05 10:07:59;;;;;;;19.83;7.55;;;22.10;46.80;;;;;;5134134;27;20701;-37
2022/05/05 10:10:25;;;;;;;14.70;5.63;;;22.00;47.40;;;;;;5134364;27;20000;-38
2022/05/05 10:12:50;;;;;;;16.17;6.53;;;22.20;47.50;;;;;;5132662;27;20377;-39
2022/05/05 10:15:16;;;;;;;19.63;6.32;;;22.50;46.30;;;;;;5133925;27;20114;-39
2022/05/05 10:17:43;;;;;;;14.57;5.40;;;22.70;45.70;;;;;;5133661;27;20026;-38
2022/05/05 10:20:11;;;;;;;17.40;5.72;;;22.90;45.20;;;;;;5115635;27;20011;-38
2022/05/05 10:22:51;;;;;;;17.30;5.70;;;23.00;44.80;;;;;;5133430;27;20047;-39
2022/05/05 10:25:32;;;;;;;10.55;4.78;;;23.20;44.50;;;;;;5132825;27;20091;-39
2022/05/05 10:27:59;;;;;;;11.73;4.68;;;23.20;44.30;;;;;;5134609;27;20026;-39
2022/05/05 10:30:34;;;;;;;15.63;4.70;;;23.30;44.10;;;;;;5135457;27;20370;-39
2022/05/05 10:33:04;;;;;;;11.10;4.38;;;23.30;44.00;;;;;;5135396;27;20020;-40
2022/05/05 10:35:48;;;;;;;10.88;4.97;;;23.30;44.00;;;;;;5134868;27;20045;-41
2022/05/05 10:38:40;;;;;;;20.13;6.45;;;23.00;44.70;;;;;;5136547;27;20117;-40
2022/05/05 10:41:37;;;;;;;16.25;5.43;;;22.80;45.20;;;;;;5134966;27;20003;-39
2022/05/05 10:44:26;;;;;;;16.08;8.43;;;22.70;45.20;;;;;;5135314;27;20508;-40
2022/05/05 10:47:00;;;;;;;15.63;9.80;;;22.40;45.50;;;;;;5133493;27;20083;-38
2022/05/05 10:49:39;;;;;;;18.75;9.70;;;21.80;47.30;;;;;;5133036;27;20008;-38
2022/05/05 10:52:13;;;;;;;18.10;9.40;;;21.80;47.50;;;;;;5132776;27;20104;-38
2022/05/05 10:54:47;;;;;;;23.70;8.35;;;22.00;47.30;;;;;;5132884;27;20015;-39
2022/05/05 10:57:25;;;;;;;22.13;9.52;;;22.10;47.50;;;;;;5132857;27;20506;-38
2022/05/05 11:00:10;;;;;;;24.33;8.73;;;22.30;47.70;;;;;;5132414;28;20496;-38
2022/05/05 11:02:37;;;;;;;37.25;11.43;;;22.50;47.70;;;;;;5132546;27;20019;-38
2022/05/05 11:05:23;;;;;;;77.72;14.45;;;22.60;47.80;;;;;;5132642;27;20018;-38
2022/05/05 11:07:49;;;;;;;72.20;13.57;;;22.70;47.80;;;;;;5132336;27;20090;-39
2022/05/05 11:11:39;;;;;;;73.25;14.68;;;22.70;48.00;;;;;;5131290;28;20050;-39
2022/05/05 11:13:45;;;;;;;54.53;13.68;;;22.80;47.90;;;;;;5131827;28;20123;-39
2022/05/05 11:22:05;;;;;;;55.08;12.73;;;23.00;47.50;;;;;;5131419;28;20058;-37
2022/05/05 11:24:31;;;;;;;47.28;12.40;;;22.90;47.70;;;;;;5131279;27;20027;-37
2022/05/05 11:26:56;;;;;;;39.85;11.20;;;23.00;47.50;;;;;;5113025;28;20019;-37
2022/05/05 11:29:22;;;;;;;31.08;12.35;;;23.00;47.50;;;;;;5131573;27;20060;-37
2022/05/05 11:31:58;;;;;;;33.15;13.70;;;23.10;46.30;;;;;;5112708;28;20076;-37
2022/05/05 11:34:34;;;;;;;23.42;14.07;;;23.00;46.20;;;;;;5131594;27;20023;-37
2022/05/05 11:37:00;;;;;;;26.58;15.20;;;23.10;45.80;;;;;;5131143;27;20038;-38
2022/05/05 11:39:29;;;;;;;23.15;14.27;;;22.90;45.80;;;;;;5131023;27;20129;-38
2022/05/05 11:42:04;;;;;;;24.55;13.43;;;22.60;46.40;;;;;;5113188;28;20029;-37
2022/05/05 11:44:30;;;;;;;21.15;12.23;;;22.60;46.70;;;;;;5132239;27;20477;-38
2022/05/05 11:46:57;;;;;;;30.42;10.95;;;22.70;47.20;;;;;;5132935;27;20012;-38
2022/05/05 11:49:24;;;;;;;23.83;12.15;;;22.80;47.50;;;;;;5133263;27;20014;-39
2022/05/05 11:51:51;;;;;;;20.70;13.63;;;22.90;47.40;;;;;;5131150;28;20022;-37
2022/05/05 11:54:24;;;;;;;21.02;12.70;;;22.90;46.10;;;;;;5132542;27;20024;-37
2022/05/05 11:56:53;;;;;;;21.73;11.85;;;22.80;47.00;;;;;;5132869;27;20007;-37
2022/05/05 12:02:09;;;;;;;20.23;11.05;;;22.80;47.90;;;;;;5136192;27;20026;-37
2022/05/05 12:04:36;;;;;;;19.92;9.40;;;22.80;48.10;;;;;;5135226;27;20019;-37
2022/05/05 12:07:02;;;;;;;19.42;10.68;;;23.00;47.80;;;;;;5136014;27;20011;-37
2022/05/05 12:09:28;;;;;;;20.20;10.93;;;22.70;48.70;;;;;;5118271;27;20026;-37
2022/05/05 12:11:54;;;;;;;20.17;10.10;;;22.90;48.30;;;;;;5136605;27;20011;-38
2022/05/05 12:14:22;;;;;;;25.48;13.52;;;23.00;48.30;;;;;;5134968;27;20103;-37
2022/05/05 12:16:48;;;;;;;25.65;11.25;;;22.70;48.00;;;;;;5136293;27;20016;-37
2022/05/05 12:19:14;;;;;;;24.50;12.68;;;22.20;49.30;;;;;;5136461;27;20022;-37
2022/05/05 12:21:56;;;;;;;26.80;14.40;;;21.90;50.10;;;;;;5135903;27;20187;-37
2022/05/05 12:24:23;;;;;;;20.05;12.00;;;21.80;50.60;;;;;;5134583;27;20035;-36
2022/05/05 12:26:51;;;;;;;20.13;11.43;;;21.60;51.20;;;;;;5135401;27;20038;-36
2022/05/05 12:29:20;;;;;;;30.40;11.13;;;21.30;51.50;;;;;;5134029;27;20536;-36
2022/05/05 12:31:55;;;;;;;33.08;11.27;;;21.20;52.40;;;;;;5133794;27;20100;-36
2022/05/05 12:34:27;;;;;;;28.20;11.10;;;21.30;52.40;;;;;;5134043;27;20015;-36
2022/05/05 12:37:10;;;;;;;20.67;9.77;;;21.30;51.80;;;;;;5134014;27;20015;-38
2022/05/05 12:39:56;;;;;;;23.92;10.32;;;21.20;52.10;;;;;;5135502;27;20647;-36
2022/05/05 12:42:22;;;;;;;21.83;9.68;;;21.20;52.40;;;;;;5135246;27;20038;-37
2022/05/05 12:44:49;;;;;;;20.30;9.20;;;21.30;52.80;;;;;;5135059;27;20046;-37
2022/05/05 12:47:24;;;;;;;22.63;9.20;;;21.10;53.30;;;;;;5135265;27;20038;-36
2022/05/05 12:49:50;;;;;;;15.65;7.90;;;21.10;54.00;;;;;;5135327;27;20514;-36
2022/05/05 13:00:33;;;;;;;19.02;7.95;;;21.50;52.80;;;;;;5135266;27;20101;-36
2022/05/05 13:03:01;;;;;;;18.17;8.07;;;21.60;53.00;;;;;;5134961;27;20441;-38
2022/05/05 13:05:27;;;;;;;14.07;6.53;;;22.10;52.40;;;;;;5134711;27;20025;-37
2022/05/05 13:07:53;;;;;;;19.00;6.88;;;22.50;51.40;;;;;;5133500;27;20134;-36
2022/05/05 13:10:19;;;;;;;14.15;6.95;;;22.90;51.00;;;;;;5132889;27;20528;-37
2022/05/05 13:12:44;;;;;;;14.48;6.40;;;23.10;50.40;;;;;;5132753;27;20465;-38
2022/05/05 13:15:10;;;;;;;13.77;6.53;;;23.30;50.20;;;;;;5134146;27;20434;-37
2022/05/05 13:17:36;;;;;;;14.90;6.05;;;23.50;49.80;;;;;;5133940;27;20079;-35
2022/05/05 13:20:02;;;;;;;15.93;6.35;;;23.60;49.70;;;;;;5132565;27;20436;-38
2022/05/05 13:22:29;;;;;;;14.52;6.10;;;23.70;49.70;;;;;;5131942;27;20065;-39
2022/05/05 13:24:55;;;;;;;11.07;6.18;;;23.80;49.70;;;;;;5115878;27;20037;-39
2022/05/05 13:27:21;;;;;;;10.00;5.70;;;23.80;49.60;;;;;;5133840;27;20023;-39